Home > Products > Valid Products > MTR

000
SAUS44 KMRX 041812 COR
MTRGDP
METAR KGDP 041751Z AUTO 08011G18KT 050V120 10SM CLR 21/M02 A3032 RMK
AO2 SLP205 T02111022 10211 20122 58001





000
SAUS44 KMRX 041812 COR
MTRGDP
METAR KGDP 041751Z AUTO 08011G18KT 050V120 10SM CLR 21/M02 A3032 RMK
AO2 SLP205 T02111022 10211 20122 58001





000
SAUS44 KMRX 040612 COR
MTRGDP
METAR KGDP 040551Z AUTO 04027KT 10SM CLR 14/01 A3026 RMK AO2 PK WND
04032/0532 SLP184 T01440006 10222 20144 51016





000
SAUS44 KMRX 040012 COR
MTRGDP
METAR KGDP 032351Z AUTO 06021G26KT 10SM SCT120 22/M01 A3014 RMK AO2
PK WND 05028/2323 SLP150 T02221011 10267 20200 53001





000
SAUS44 KMRX 040012 COR
MTRGDP
METAR KGDP 032351Z AUTO 06021G26KT 10SM SCT120 22/M01 A3014 RMK AO2
PK WND 05028/2323 SLP150 T02221011 10267 20200 53001





000
SAUS44 KMRX 031912 COR
MTRGDP
METAR KGDP 031851Z AUTO 23015G26KT 10SM CLR 24/M01 A3016 RMK AO2 PK
WND 23026/1846 SLP152 T02391011





000
SAUS44 KMRX 031912 COR
MTRGDP
METAR KGDP 031851Z AUTO 23015G26KT 10SM CLR 24/M01 A3016 RMK AO2 PK
WND 23026/1846 SLP152 T02391011





000
SAUS44 KMRX 030938
MTROQT
SPECI KOQT 030932Z AUTO 00000KT 10SM BKN005 BKN009 OVC042 16/15
A2989 RMK AO2 RAE19 P0000 T01610150





    US Dept of Commerce
    National Oceanic and Atmospheric Administration
    National Weather Service
    1325 East West Highway
    Silver Spring, MD 20910
    Page Author: NWS Internet Services Team
Disclaimer
Information Quality
Credits
Glossary
Privacy Policy
Freedom of Information Act (FOIA)
About Us
Career Opportunities